Boncarbo, Colorado
Current Conditions -  °F | °C
As of 5:54 PM on Wednesday 22 Oct 2014 (Local Time) from KTAD Reporting Station
Few Clouds Few Clouds  
Wind Chill: 66°   Ceiling: Unl
Heat Index: 66°   Visibility: 10mi
Dew Point: 37°   Wind: 6mph
Humidity: 34%   Direction: 120°ESE
Pressure: 30.1"   Gusts: NA
Location:  37.22°N, 104.7°W
Report Text: KTAD 222354Z AUTO 12005KT 10SM FEW110 19/03 A3010 RMK AO2 SLP134 T01890028 10217 20183 53003
Loading
Personal Weather Stations






























Interactive Weather Map New forecast layout! Learn more

10-Day Weather Forecast

Advertisements
Track Severe Weather on mobile